createdAt,value
2019-02-15T00:06:30.270Z,1.31
2019-02-15T00:16:30.226Z,1.30
2019-02-15T00:26:30.248Z,1.16
2019-02-15T00:36:30.274Z,1.09
2019-02-15T00:46:30.248Z,1.00
2019-02-15T00:56:30.189Z,0.78
2019-02-15T01:06:30.281Z,0.42
2019-02-15T01:16:30.299Z,0.20
2019-02-15T01:26:30.168Z,0.20
2019-02-15T01:36:30.243Z,0.14
2019-02-15T01:46:30.187Z,0.03
2019-02-15T01:56:30.188Z,-0.05
2019-02-15T02:06:30.275Z,-0.19
2019-02-15T02:16:30.243Z,-0.26
2019-02-15T02:26:30.276Z,-0.40
2019-02-15T02:36:30.149Z,-0.56
2019-02-15T02:46:30.202Z,-0.57
2019-02-15T02:56:30.170Z,-0.63
2019-02-15T03:06:30.403Z,-0.79
2019-02-15T03:16:30.206Z,-0.85
2019-02-15T03:26:30.192Z,-0.68
2019-02-15T03:36:30.242Z,-0.63
2019-02-15T03:46:30.170Z,-0.85
2019-02-15T03:56:30.175Z,-1.06
2019-02-15T04:06:30.206Z,-1.03
2019-02-15T04:16:30.178Z,-1.07
2019-02-15T04:26:30.168Z,-1.35
2019-02-15T04:36:30.258Z,-1.29
2019-02-15T04:46:30.145Z,-1.14
2019-02-15T04:56:30.181Z,-1.19
2019-02-15T05:06:30.055Z,-1.26
2019-02-15T05:16:30.208Z,-1.48
2019-02-15T05:26:30.230Z,-1.56
2019-02-15T05:36:30.182Z,-1.28
2019-02-15T05:46:30.177Z,-1.26
2019-02-15T05:56:30.226Z,-1.22
2019-02-15T06:06:30.194Z,-1.10
2019-02-15T06:16:30.157Z,-1.13
2019-02-15T06:26:31.043Z,-1.23
2019-02-15T06:36:30.258Z,-1.27
2019-02-15T06:46:30.108Z,-1.11
2019-02-15T06:56:30.117Z,-1.04
2019-02-15T07:06:30.223Z,-1.05
2019-02-15T07:16:30.668Z,-1.04
2019-02-15T07:26:30.236Z,-0.95
2019-02-15T07:36:30.237Z,-0.59
2019-02-15T07:46:30.097Z,2.41
2019-02-15T07:56:30.259Z,4.12
2019-02-15T08:06:30.504Z,4.44
2019-02-15T08:16:30.134Z,4.91
2019-02-15T08:26:30.218Z,5.30
2019-02-15T08:36:30.132Z,5.97
2019-02-15T08:46:30.184Z,7.83
2019-02-15T08:56:30.200Z,8.53
2019-02-15T09:06:30.261Z,9.10
2019-02-15T09:16:30.188Z,11.01
2019-02-15T09:26:30.278Z,12.67
2019-02-15T09:36:30.115Z,14.07
2019-02-15T09:46:30.178Z,15.18
2019-02-15T09:56:30.246Z,15.99
2019-02-15T10:06:30.186Z,16.30
2019-02-15T10:16:31.525Z,17.12
2019-02-15T10:26:31.136Z,18.33
2019-02-15T10:36:30.196Z,19.08
2019-02-15T10:46:38.102Z,19.22
2019-02-15T10:56:30.221Z,19.85
2019-02-15T11:06:30.155Z,20.51
2019-02-15T11:16:30.251Z,20.75
2019-02-15T11:26:30.315Z,21.53
2019-02-15T11:36:30.208Z,21.09
2019-02-15T11:46:30.216Z,20.04
2019-02-15T11:56:30.181Z,20.71
2019-02-15T12:06:30.243Z,20.44
2019-02-15T12:16:30.205Z,22.52
2019-02-15T12:26:30.818Z,23.20
2019-02-15T12:36:30.196Z,24.22
2019-02-15T12:46:30.225Z,23.92
2019-02-15T12:56:30.192Z,23.65
2019-02-15T13:06:43.217Z,23.83
2019-02-15T13:16:30.237Z,22.11
2019-02-15T13:26:30.239Z,21.73
2019-02-15T13:36:30.201Z,20.77
2019-02-15T13:46:30.205Z,20.80
2019-02-15T13:56:30.450Z,21.47
2019-02-15T14:06:30.420Z,21.22
2019-02-15T14:16:30.833Z,21.51
2019-02-15T14:26:30.203Z,21.64
2019-02-15T14:36:30.252Z,21.73
2019-02-15T14:46:30.290Z,21.02
2019-02-15T14:56:30.294Z,21.66
2019-02-15T15:06:30.336Z,20.23
2019-02-15T15:16:30.150Z,20.72
2019-02-15T15:26:30.294Z,20.42
2019-02-15T15:36:30.284Z,20.18
2019-02-15T15:46:30.326Z,20.30
2019-02-15T15:56:30.232Z,19.78
2019-02-15T16:06:30.846Z,20.28
2019-02-15T16:16:31.259Z,20.44
2019-02-15T16:26:30.456Z,19.78
2019-02-15T16:36:30.335Z,16.64
2019-02-15T16:46:30.276Z,14.33
2019-02-15T16:56:30.280Z,13.26
2019-02-15T17:06:30.502Z,12.13
2019-02-15T17:16:30.368Z,11.49
2019-02-15T17:26:37.671Z,10.69
2019-02-15T17:36:30.353Z,10.17
2019-02-15T17:46:30.284Z,9.80
2019-02-15T17:56:30.340Z,9.41
2019-02-15T18:06:30.383Z,8.81
2019-02-15T18:16:30.306Z,8.56
2019-02-15T18:26:30.344Z,8.29
2019-02-15T18:36:32.177Z,7.62
2019-02-15T18:46:30.417Z,7.10
2019-02-15T18:56:31.207Z,6.70
2019-02-15T19:06:30.397Z,6.93
2019-02-15T19:16:30.304Z,6.87
2019-02-15T19:26:30.328Z,6.23
2019-02-15T19:36:30.292Z,5.93
2019-02-15T19:46:30.549Z,5.05
2019-02-15T19:56:30.307Z,4.84
2019-02-15T20:06:30.370Z,4.82
2019-02-15T20:16:30.292Z,4.52
2019-02-15T20:36:30.318Z,4.83
2019-02-15T20:46:30.309Z,4.56
2019-02-15T20:56:33.283Z,4.70
2019-02-15T21:06:30.922Z,4.71
2019-02-15T21:16:30.325Z,4.29
2019-02-15T21:26:30.284Z,4.07
2019-02-15T21:36:30.252Z,4.04
2019-02-15T21:46:31.254Z,3.66
2019-02-15T21:56:30.261Z,3.30
2019-02-15T22:06:30.287Z,2.92
2019-02-15T22:16:30.300Z,2.67
2019-02-15T22:26:31.122Z,2.23
2019-02-15T22:36:30.262Z,2.24
2019-02-15T22:46:30.305Z,2.15
2019-02-15T22:56:30.277Z,2.15
2019-02-15T23:06:30.334Z,2.09
2019-02-15T23:16:30.336Z,1.87
2019-02-15T23:26:30.384Z,1.78
2019-02-15T23:36:30.223Z,1.53
2019-02-15T23:46:30.428Z,1.47
2019-02-15T23:56:30.363Z,1.71
